createdAt,value
2017-12-22T00:00:27.551Z,96.08
2017-12-22T00:01:27.566Z,96.84
2017-12-22T00:02:27.529Z,96.65
2017-12-22T00:03:27.522Z,96.36
2017-12-22T00:04:27.513Z,96.74
2017-12-22T00:05:27.502Z,96.65
2017-12-22T00:06:27.227Z,96.74
2017-12-22T00:07:27.476Z,96.74
2017-12-22T00:08:27.480Z,96.36
2017-12-22T00:09:27.479Z,96.55
2017-12-22T00:10:27.445Z,96.74
2017-12-22T00:11:27.444Z,96.74
2017-12-22T00:12:27.414Z,96.26
2017-12-22T00:13:27.417Z,96.45
2017-12-22T00:14:27.418Z,96.26
2017-12-22T00:15:27.399Z,96.17
2017-12-22T00:16:27.387Z,96.26
2017-12-22T00:17:27.368Z,96.17
2017-12-22T00:18:27.352Z,96.08
2017-12-22T00:19:27.338Z,96.93
2017-12-22T00:20:27.070Z,96.65
2017-12-22T00:21:27.314Z,96.74
2017-12-22T00:22:27.073Z,96.65
2017-12-22T00:23:27.300Z,96.26
2017-12-22T00:24:27.288Z,96.17
2017-12-22T00:25:27.276Z,96.55
2017-12-22T00:26:27.256Z,96.65
2017-12-22T00:27:27.255Z,96.93
2017-12-22T00:28:27.255Z,96.74
2017-12-22T00:29:27.291Z,96.74
2017-12-22T00:30:27.232Z,96.17
2017-12-22T00:31:27.210Z,96.08
2017-12-22T00:32:27.201Z,96.45
2017-12-22T00:33:27.182Z,96.17
2017-12-22T00:34:27.173Z,96.08
2017-12-22T00:35:26.909Z,95.98
2017-12-22T00:36:27.143Z,95.89
2017-12-22T00:37:27.137Z,95.79
2017-12-22T00:38:27.135Z,95.79
2017-12-22T00:39:27.130Z,96.36
2017-12-22T00:40:27.108Z,96.26
2017-12-22T00:41:27.095Z,95.79
2017-12-22T00:42:27.076Z,96.17
2017-12-22T00:43:27.062Z,96.17
2017-12-22T00:44:27.059Z,96.55
2017-12-22T00:45:27.050Z,96.26
2017-12-22T00:46:27.029Z,96.26
2017-12-22T00:47:27.020Z,96.74
2017-12-22T00:48:27.013Z,96.36
2017-12-22T00:49:26.997Z,96.17
2017-12-22T00:50:26.981Z,96.08
2017-12-22T00:51:26.980Z,96.84
2017-12-22T00:52:26.968Z,96.08
2017-12-22T00:53:26.977Z,96.26
2017-12-22T00:54:26.939Z,96.55
2017-12-22T00:55:26.929Z,96.74
2017-12-22T00:56:26.913Z,96.17
2017-12-22T00:57:26.912Z,96.17
2017-12-22T00:58:26.901Z,96.74
2017-12-22T00:59:26.885Z,96.65
2017-12-22T01:00:26.871Z,96.84
2017-12-22T01:01:26.867Z,96.84
2017-12-22T01:02:26.852Z,96.74
2017-12-22T01:03:26.583Z,96.74
2017-12-22T01:04:26.826Z,96.74
2017-12-22T01:05:26.824Z,95.98
2017-12-22T01:06:26.812Z,95.98
2017-12-22T01:07:26.795Z,95.89
2017-12-22T01:08:26.788Z,95.89
2017-12-22T01:09:26.777Z,96.36
2017-12-22T01:10:26.761Z,96.17
2017-12-22T01:11:26.755Z,96.26
2017-12-22T01:12:26.738Z,96.36
2017-12-22T01:13:26.719Z,95.79
2017-12-22T01:14:26.728Z,95.79
2017-12-22T01:15:26.441Z,96.17
2017-12-22T01:16:26.691Z,95.98
2017-12-22T01:17:26.677Z,96.08
2017-12-22T01:18:26.664Z,96.08
2017-12-22T01:19:26.652Z,96.26
2017-12-22T01:20:26.644Z,96.17
2017-12-22T01:21:26.635Z,95.98
2017-12-22T01:22:26.624Z,96.45
2017-12-22T01:23:26.618Z,96.45
2017-12-22T01:24:26.602Z,96.74
2017-12-22T01:25:26.329Z,96.55
2017-12-22T01:26:26.320Z,96.84
2017-12-22T01:27:26.568Z,96.84
2017-12-22T01:28:26.551Z,96.55
2017-12-22T01:29:26.539Z,96.26
2017-12-22T01:30:26.272Z,96.26
2017-12-22T01:31:26.528Z,95.98
2017-12-22T01:32:26.511Z,96.65
2017-12-22T01:33:26.490Z,96.65
2017-12-22T01:34:26.223Z,95.79
2017-12-22T01:35:26.476Z,96.84
2017-12-22T01:36:26.472Z,96.84
2017-12-22T01:37:26.447Z,96.17
2017-12-22T01:38:26.178Z,96.17
2017-12-22T01:39:26.430Z,95.79
2017-12-22T01:40:26.411Z,96.45
2017-12-22T01:41:26.399Z,96.26
2017-12-22T01:42:26.387Z,96.55
2017-12-22T01:43:26.375Z,96.17
2017-12-22T01:44:26.375Z,96.08
2017-12-22T01:45:26.356Z,96.17
2017-12-22T01:46:26.343Z,96.84
2017-12-22T01:47:26.332Z,96.55
2017-12-22T01:48:26.318Z,96.55
2017-12-22T01:49:26.316Z,96.55
2017-12-22T01:50:26.304Z,96.17
2017-12-22T01:51:26.293Z,96.55
2017-12-22T01:52:26.286Z,96.17
2017-12-22T01:53:26.270Z,96.36
2017-12-22T01:54:26.260Z,96.17
2017-12-22T01:55:26.238Z,96.55
2017-12-22T01:56:25.969Z,96.55
2017-12-22T01:57:26.229Z,96.08
2017-12-22T01:58:26.203Z,96.36
2017-12-22T01:59:26.191Z,96.17
2017-12-22T02:00:26.180Z,96.36
2017-12-22T02:01:26.168Z,95.79
2017-12-22T02:02:26.161Z,96.26
2017-12-22T02:03:26.145Z,96.17
2017-12-22T02:04:26.142Z,96.26
2017-12-22T02:05:26.125Z,96.08
2017-12-22T02:06:26.129Z,96.17
2017-12-22T02:07:26.103Z,96.26
2017-12-22T02:08:26.090Z,96.17
2017-12-22T02:09:26.077Z,96.36
2017-12-22T02:10:26.077Z,96.36
2017-12-22T02:11:26.064Z,96.08
2017-12-22T02:12:26.046Z,96.26
2017-12-22T02:13:26.032Z,96.26
2017-12-22T02:14:26.023Z,95.89
2017-12-22T02:15:26.025Z,96.08
2017-12-22T02:16:26.001Z,96.17
2017-12-22T02:17:26.002Z,96.26
2017-12-22T02:18:25.975Z,96.36
2017-12-22T02:19:25.967Z,96.36
2017-12-22T02:20:25.701Z,96.36
2017-12-22T02:21:25.943Z,96.55
2017-12-22T02:22:25.934Z,96.36
2017-12-22T02:23:25.918Z,96.45
2017-12-22T02:24:25.908Z,95.98
2017-12-22T02:25:25.907Z,96.36
2017-12-22T02:26:25.885Z,96.26
2017-12-22T02:27:25.883Z,96.17
2017-12-22T02:28:25.605Z,95.7
2017-12-22T02:29:25.850Z,95.79
2017-12-22T02:30:25.851Z,95.79
2017-12-22T02:31:25.827Z,95.6
2017-12-22T02:32:25.838Z,95.7
2017-12-22T02:33:25.811Z,95.89
2017-12-22T02:34:25.793Z,95.79
2017-12-22T02:35:25.781Z,95.89
2017-12-22T02:36:25.777Z,95.98
2017-12-22T02:37:25.761Z,95.7
2017-12-22T02:38:25.762Z,95.7
2017-12-22T02:39:25.736Z,95.7
2017-12-22T02:40:25.729Z,95.41
2017-12-22T02:41:25.461Z,95.6
2017-12-22T02:42:25.714Z,95.6
2017-12-22T02:43:25.702Z,95.6
2017-12-22T02:44:25.679Z,95.6
2017-12-22T02:45:25.683Z,95.7
2017-12-22T02:46:25.656Z,95.7
2017-12-22T02:47:25.657Z,95.79
2017-12-22T02:48:25.642Z,95.6
2017-12-22T02:49:25.639Z,95.7
2017-12-22T02:50:25.622Z,95.89
2017-12-22T02:51:25.617Z,95.79
2017-12-22T02:52:25.601Z,95.89
2017-12-22T02:53:25.583Z,95.7
2017-12-22T02:54:25.569Z,95.41
2017-12-22T02:55:25.560Z,95.32
2017-12-22T02:56:25.554Z,95.51
2017-12-22T02:57:25.542Z,95.7
2017-12-22T02:58:25.530Z,95.79
2017-12-22T02:59:25.508Z,95.6
2017-12-22T03:00:25.506Z,95.6
2017-12-22T03:01:25.499Z,95.41
2017-12-22T03:02:25.477Z,95.7
2017-12-22T03:03:25.472Z,95.7
2017-12-22T03:04:25.455Z,95.7
2017-12-22T03:05:25.453Z,95.7
2017-12-22T03:06:25.436Z,95.6
2017-12-22T03:07:25.418Z,95.7
2017-12-22T03:08:25.419Z,95.79
2017-12-22T03:09:25.397Z,95.32
2017-12-22T03:10:25.387Z,95.98
2017-12-22T03:11:25.379Z,95.7
2017-12-22T03:12:25.361Z,95.7
2017-12-22T03:13:25.354Z,95.51
2017-12-22T03:14:25.351Z,95.51
2017-12-22T03:15:25.330Z,95.32
2017-12-22T03:16:25.319Z,95.51
2017-12-22T03:17:25.304Z,94.74
2017-12-22T03:18:25.295Z,95.03
2017-12-22T03:19:25.283Z,95.6
2017-12-22T03:20:25.284Z,95.32
2017-12-22T03:21:25.258Z,94.93
2017-12-22T03:22:25.251Z,95.03
2017-12-22T03:23:25.251Z,95.03
2017-12-22T03:24:25.231Z,95.79
2017-12-22T03:25:25.224Z,95.79
2017-12-22T03:26:25.204Z,95.79
2017-12-22T03:27:25.192Z,95.7
2017-12-22T03:28:25.181Z,95.6
2017-12-22T03:29:25.170Z,95.41
2017-12-22T03:30:25.175Z,95.84
2017-12-22T03:31:24.896Z,95.94
2017-12-22T03:32:25.134Z,95.7
2017-12-22T03:33:25.136Z,95.03
2017-12-22T03:34:25.113Z,95.27
2017-12-22T03:35:25.109Z,95.08
2017-12-22T03:36:25.091Z,95.12
2017-12-22T03:37:25.083Z,94.93
2017-12-22T03:38:25.077Z,95.12
2017-12-22T03:39:25.057Z,95.79
2017-12-22T03:40:25.046Z,95.51
2017-12-22T03:41:25.034Z,95.51
2017-12-22T03:42:25.029Z,95.51
2017-12-22T03:43:25.011Z,95.51
2017-12-22T03:44:25.003Z,95.6
2017-12-22T03:45:24.990Z,95.51
2017-12-22T03:46:24.979Z,95.6
2017-12-22T03:47:24.982Z,95.41
2017-12-22T03:48:24.963Z,95.51
2017-12-22T03:49:24.950Z,95.65
2017-12-22T03:50:24.941Z,95.75
2017-12-22T03:51:24.929Z,95.75
2017-12-22T03:52:24.911Z,95.94
2017-12-22T03:53:24.909Z,95.84
2017-12-22T03:54:24.898Z,94.98
2017-12-22T03:55:24.879Z,94.98
2017-12-22T03:56:25.294Z,94.84
2017-12-22T03:57:24.865Z,95.41
2017-12-22T03:58:24.846Z,94.98
2017-12-22T03:59:24.578Z,95.12
2017-12-22T04:00:24.824Z,95.7
2017-12-22T04:01:24.820Z,95.51
2017-12-22T04:02:24.548Z,95.51
2017-12-22T04:03:24.792Z,95.6
2017-12-22T04:04:24.787Z,95.32
2017-12-22T04:05:24.773Z,95.6
2017-12-22T04:06:24.751Z,95.51
2017-12-22T04:07:24.749Z,95.32
2017-12-22T04:08:24.741Z,95.41
2017-12-22T04:09:24.773Z,95.32
2017-12-22T04:10:24.706Z,95.27
2017-12-22T04:11:24.696Z,95.03
2017-12-22T04:12:24.691Z,95.75
2017-12-22T04:13:24.682Z,94.89
2017-12-22T04:14:24.663Z,95.79
2017-12-22T04:15:24.653Z,95.51
2017-12-22T04:16:24.639Z,95.56
2017-12-22T04:17:24.632Z,95.36
2017-12-22T04:18:24.622Z,95.75
2017-12-22T04:19:24.612Z,95.75
2017-12-22T04:20:24.594Z,95.41
2017-12-22T04:21:24.327Z,95.79
2017-12-22T04:22:24.588Z,95.41
2017-12-22T04:23:24.570Z,95.7
2017-12-22T04:24:24.558Z,95.51
2017-12-22T04:25:24.538Z,95.51
2017-12-22T04:26:24.533Z,95.6
2017-12-22T04:27:24.522Z,95.7
2017-12-22T04:28:24.508Z,95.56
2017-12-22T04:29:24.494Z,95.7
2017-12-22T04:30:24.491Z,95.51
2017-12-22T04:31:24.471Z,95.32
2017-12-22T04:32:24.464Z,95.7
2017-12-22T04:33:24.465Z,94.98
2017-12-22T04:34:24.449Z,95.84
2017-12-22T04:35:24.435Z,95.6
2017-12-22T04:36:24.417Z,95.7
2017-12-22T04:37:24.402Z,95.79
2017-12-22T04:38:24.391Z,95.6
2017-12-22T04:39:24.381Z,95.51
2017-12-22T04:40:24.377Z,95.79
2017-12-22T04:41:24.360Z,95.79
2017-12-22T04:42:24.352Z,95.6
2017-12-22T04:43:24.335Z,95.41
2017-12-22T04:44:24.328Z,95.51
2017-12-22T04:45:24.322Z,95.51
2017-12-22T04:46:24.305Z,95.79
2017-12-22T04:47:24.297Z,95.7
2017-12-22T04:48:24.290Z,95.6
2017-12-22T04:49:24.267Z,95.6
2017-12-22T04:50:24.266Z,95.65
2017-12-22T04:51:24.259Z,95.75
2017-12-22T04:52:24.244Z,95.7
2017-12-22T04:53:24.228Z,95.75
2017-12-22T04:54:24.214Z,95.51
2017-12-22T04:55:24.208Z,95.7
2017-12-22T04:56:24.189Z,95.6
2017-12-22T04:57:24.179Z,95.41
2017-12-22T04:58:24.166Z,95.89
2017-12-22T04:59:24.167Z,95.79
2017-12-22T05:00:24.154Z,95.79
2017-12-22T05:01:24.143Z,95.7
2017-12-22T05:02:24.128Z,96.12
2017-12-22T05:03:24.111Z,95.65
2017-12-22T05:04:24.100Z,95.75
2017-12-22T05:05:24.099Z,95.6
2017-12-22T05:06:24.077Z,95.41
2017-12-22T05:07:24.078Z,95.79
2017-12-22T05:08:24.056Z,95.7
2017-12-22T05:09:24.050Z,96.17
2017-12-22T05:10:24.033Z,95.79
2017-12-22T05:11:24.021Z,96.08
2017-12-22T05:12:24.010Z,95.79
2017-12-22T05:13:24.008Z,95.46
2017-12-22T05:14:24.018Z,95.75
2017-12-22T05:15:23.979Z,95.94
2017-12-22T05:16:23.972Z,95.08
2017-12-22T05:17:23.962Z,95.27
2017-12-22T05:18:23.959Z,94.98
2017-12-22T05:19:23.941Z,94.79
2017-12-22T05:20:23.931Z,94.7
2017-12-22T05:21:23.910Z,94.98
2017-12-22T05:22:23.898Z,94.79
2017-12-22T05:23:23.897Z,94.6
2017-12-22T05:24:23.875Z,94.6
2017-12-22T05:25:23.864Z,94.6
2017-12-22T05:26:23.856Z,94.42
2017-12-22T05:27:23.843Z,94.79
2017-12-22T05:28:23.840Z,94.89
2017-12-22T05:29:23.824Z,94.32
2017-12-22T05:30:23.810Z,94.6
2017-12-22T05:31:23.884Z,94.6
2017-12-22T05:32:23.793Z,94.42
2017-12-22T05:33:23.787Z,94.03
2017-12-22T05:34:23.765Z,93.94
2017-12-22T05:35:23.753Z,94.32
2017-12-22T05:36:23.752Z,94.7
2017-12-22T05:37:23.730Z,94.32
2017-12-22T05:38:23.727Z,94.51
2017-12-22T05:39:23.455Z,94.6
2017-12-22T05:40:23.697Z,94.6
2017-12-22T05:41:23.705Z,94.6
2017-12-22T05:42:23.419Z,94.51
2017-12-22T05:43:23.666Z,94.51
2017-12-22T05:44:23.400Z,94.7
2017-12-22T05:45:23.651Z,94.51
2017-12-22T05:46:23.639Z,94.32
2017-12-22T05:47:23.366Z,94.51
2017-12-22T05:48:23.615Z,94.51
2017-12-22T05:49:23.608Z,94.79
2017-12-22T05:50:23.589Z,94.32
2017-12-22T05:51:23.324Z,94.51
2017-12-22T05:52:23.565Z,94.6
2017-12-22T05:53:23.572Z,94.6
2017-12-22T05:54:23.556Z,94.6
2017-12-22T05:55:23.532Z,94.7
2017-12-22T05:56:23.548Z,94.51
2017-12-22T05:57:23.254Z,94.51
2017-12-22T05:58:23.250Z,94.6
2017-12-22T05:59:23.490Z,94.6
2017-12-22T06:00:23.492Z,94.22
2017-12-22T06:01:23.469Z,94.03
2017-12-22T06:02:23.457Z,94.03
2017-12-22T06:03:23.453Z,94.03
2017-12-22T06:04:23.436Z,93.84
2017-12-22T06:05:23.423Z,93.84
2017-12-22T06:06:23.416Z,94.03
2017-12-22T06:07:23.408Z,94.03
2017-12-22T06:08:23.436Z,93.84
2017-12-22T06:09:23.387Z,94.22
2017-12-22T06:10:23.384Z,94.22
2017-12-22T06:11:23.365Z,94.03
2017-12-22T06:12:23.354Z,93.84
2017-12-22T06:13:23.344Z,94.22
2017-12-22T06:14:23.326Z,94.22
2017-12-22T06:15:23.365Z,94.32
2017-12-22T06:16:23.301Z,94.03
2017-12-22T06:17:23.294Z,94.13
2017-12-22T06:18:23.279Z,94.42
2017-12-22T06:19:23.281Z,94.03
2017-12-22T06:20:23.257Z,94.22
2017-12-22T06:21:23.253Z,94.03
2017-12-22T06:22:23.247Z,93.94
2017-12-22T06:23:23.238Z,94.03
2017-12-22T06:24:23.212Z,93.84
2017-12-22T06:25:23.203Z,94.51
2017-12-22T06:26:23.200Z,94.13
2017-12-22T06:27:23.181Z,94.03
2017-12-22T06:28:23.173Z,94.42
2017-12-22T06:29:23.160Z,94.22
2017-12-22T06:30:23.157Z,94.32
2017-12-22T06:31:23.140Z,94.22
2017-12-22T06:32:23.136Z,94.03
2017-12-22T06:33:23.123Z,93.94
2017-12-22T06:34:23.181Z,93.84
2017-12-22T06:35:23.100Z,93.94
2017-12-22T06:36:23.099Z,93.94
2017-12-22T06:37:23.084Z,94.13
2017-12-22T06:38:23.063Z,94.03
2017-12-22T06:39:23.057Z,93.94
2017-12-22T06:40:23.046Z,94.13
2017-12-22T06:41:23.044Z,94.03
2017-12-22T06:42:23.030Z,93.51
2017-12-22T06:43:23.014Z,93.94
2017-12-22T06:44:22.996Z,93.46
2017-12-22T06:45:22.996Z,93.75
2017-12-22T06:46:22.983Z,93.75
2017-12-22T06:47:22.974Z,93.75
2017-12-22T06:48:22.963Z,93.75
2017-12-22T06:49:22.946Z,93.84
2017-12-22T06:50:22.931Z,93.84
2017-12-22T06:51:22.931Z,93.55
2017-12-22T06:52:22.923Z,93.55
2017-12-22T06:53:22.905Z,93.46
2017-12-22T06:54:22.890Z,93.89
2017-12-22T06:55:22.880Z,93.75
2017-12-22T06:56:22.869Z,93.75
2017-12-22T06:57:22.855Z,93.6
2017-12-22T06:58:22.852Z,93.89
2017-12-22T06:59:22.846Z,93.6
2017-12-22T07:00:22.830Z,93.7
2017-12-22T07:01:22.817Z,93.79
2017-12-22T07:02:22.809Z,93.79
2017-12-22T07:03:22.798Z,93.94
2017-12-22T07:04:22.786Z,93.98
2017-12-22T07:05:22.818Z,93.89
2017-12-22T07:06:22.775Z,93.79
2017-12-22T07:07:22.748Z,93.7
2017-12-22T07:08:22.743Z,93.79
2017-12-22T07:09:22.730Z,93.51
2017-12-22T07:10:22.724Z,93.7
2017-12-22T07:11:22.712Z,93.79
2017-12-22T07:12:22.692Z,93.51
2017-12-22T07:13:22.681Z,93.98
2017-12-22T07:14:22.682Z,93.89
2017-12-22T07:15:22.926Z,93.79
2017-12-22T07:16:22.649Z,93.79
2017-12-22T07:17:22.640Z,94.18
2017-12-22T07:18:22.637Z,93.89
2017-12-22T07:19:22.622Z,93.98
2017-12-22T07:20:22.367Z,93.79
2017-12-22T07:21:22.599Z,93.98
2017-12-22T07:22:22.592Z,93.7
2017-12-22T07:23:22.585Z,93.89
2017-12-22T07:24:22.564Z,93.79
2017-12-22T07:25:22.559Z,93.89
2017-12-22T07:26:22.544Z,93.89
2017-12-22T07:27:22.531Z,93.89
2017-12-22T07:28:22.527Z,93.89
2017-12-22T07:29:22.513Z,94.08
2017-12-22T07:30:22.510Z,93.89
2017-12-22T07:31:22.489Z,93.7
2017-12-22T07:32:22.484Z,93.7
2017-12-22T07:33:22.467Z,94.08
2017-12-22T07:34:22.467Z,93.98
2017-12-22T07:35:22.445Z,93.7
2017-12-22T07:36:22.440Z,93.7
2017-12-22T07:37:22.428Z,93.7
2017-12-22T07:38:22.419Z,93.89
2017-12-22T07:39:22.416Z,93.51
2017-12-22T07:40:22.403Z,93.7
2017-12-22T07:41:22.392Z,93.51
2017-12-22T07:42:22.378Z,93.89
2017-12-22T07:43:22.378Z,93.89
2017-12-22T07:44:22.356Z,93.7
2017-12-22T07:45:22.348Z,93.79
2017-12-22T07:46:22.334Z,93.7
2017-12-22T07:47:22.329Z,93.7
2017-12-22T07:48:22.309Z,93.89
2017-12-22T07:49:22.298Z,93.51
2017-12-22T07:50:22.294Z,93.7
2017-12-22T07:51:22.284Z,93.51
2017-12-22T07:52:22.271Z,93.13
2017-12-22T07:53:22.006Z,93.51
2017-12-22T07:54:22.317Z,93.51
2017-12-22T07:55:22.236Z,93.51
2017-12-22T07:56:22.222Z,93.41
2017-12-22T07:57:22.223Z,93.32
2017-12-22T07:58:22.211Z,93.7
2017-12-22T07:59:22.192Z,93.51
2017-12-22T08:00:21.926Z,93.7
2017-12-22T08:01:22.173Z,93.7
2017-12-22T08:02:22.170Z,93.32
2017-12-22T08:03:22.158Z,93.7
2017-12-22T08:04:22.144Z,93.51
2017-12-22T08:05:22.139Z,93.89
2017-12-22T08:06:22.134Z,93.89
2017-12-22T08:07:22.108Z,93.7
2017-12-22T08:08:22.128Z,93.79
2017-12-22T08:09:22.118Z,93.7
2017-12-22T08:10:22.101Z,93.79
2017-12-22T08:11:22.068Z,93.89
2017-12-22T08:12:22.077Z,93.7
2017-12-22T08:13:22.076Z,93.79
2017-12-22T08:14:22.054Z,93.79
2017-12-22T08:15:22.029Z,94.56
2017-12-22T08:16:22.024Z,94.37
2017-12-22T08:17:22.022Z,93.89
2017-12-22T08:18:22.001Z,94.08
2017-12-22T08:19:21.982Z,94.65
2017-12-22T08:20:22.008Z,94.46
2017-12-22T08:21:21.712Z,94.46
2017-12-22T08:22:21.960Z,94.56
2017-12-22T08:23:21.951Z,94.56
2017-12-22T08:24:21.935Z,94.56
2017-12-22T08:25:21.937Z,94.46
2017-12-22T08:26:21.918Z,94.74
2017-12-22T08:27:21.901Z,94.46
2017-12-22T08:28:21.901Z,93.79
2017-12-22T08:29:21.890Z,93.89
2017-12-22T08:30:21.880Z,93.89
2017-12-22T08:31:21.857Z,94.08
2017-12-22T08:32:21.848Z,93.89
2017-12-22T08:33:21.848Z,94.46
2017-12-22T08:34:21.828Z,94.18
2017-12-22T08:35:21.816Z,93.7
2017-12-22T08:36:21.548Z,93.98
2017-12-22T08:37:21.799Z,93.7
2017-12-22T08:38:21.798Z,93.89
2017-12-22T08:39:21.774Z,93.89
2017-12-22T08:40:21.761Z,93.89
2017-12-22T08:41:21.505Z,93.79
2017-12-22T08:42:21.755Z,93.79
2017-12-22T08:43:21.734Z,93.79
2017-12-22T08:44:21.736Z,93.98
2017-12-22T08:45:21.717Z,93.7
2017-12-22T08:46:21.731Z,93.7
2017-12-22T08:47:21.713Z,93.65
2017-12-22T08:48:21.679Z,93.55
2017-12-22T08:49:21.724Z,93.74
2017-12-22T08:50:21.669Z,93.65
2017-12-22T08:51:21.653Z,93.55
2017-12-22T08:52:21.649Z,93.18
2017-12-22T08:53:21.640Z,93.46
2017-12-22T08:54:21.629Z,93.37
2017-12-22T08:55:21.610Z,93.27
2017-12-22T08:56:21.603Z,93.18
2017-12-22T08:57:21.596Z,93.08
2017-12-22T08:58:21.580Z,93.46
2017-12-22T08:59:21.569Z,93.18
2017-12-22T09:00:21.570Z,92.99
2017-12-22T09:01:21.547Z,92.51
2017-12-22T09:02:21.552Z,92.6
2017-12-22T09:03:21.528Z,92.7
2017-12-22T09:04:21.529Z,92.89
2017-12-22T09:05:21.509Z,92.79
2017-12-22T09:06:21.515Z,92.51
2017-12-22T09:07:21.504Z,92.7
2017-12-22T09:08:21.475Z,92.6
2017-12-22T09:09:21.491Z,92.18
2017-12-22T09:10:21.470Z,92.79
2017-12-22T09:11:21.471Z,92.13
2017-12-22T09:12:21.464Z,92.41
2017-12-22T09:13:21.461Z,92.51
2017-12-22T09:14:21.457Z,92.41
2017-12-22T09:15:21.418Z,92.7
2017-12-22T09:16:21.410Z,92.7
2017-12-22T09:17:21.413Z,92.79
2017-12-22T09:18:21.414Z,92.7
2017-12-22T09:19:21.399Z,93.08
2017-12-22T09:20:21.363Z,92.7
2017-12-22T09:21:21.368Z,92.6
2017-12-22T09:22:21.361Z,92.99
2017-12-22T09:23:21.078Z,92.7
2017-12-22T09:24:21.355Z,92.79
2017-12-22T09:25:21.336Z,93.46
2017-12-22T09:26:21.311Z,93.37
2017-12-22T09:27:21.336Z,92.6
2017-12-22T09:28:21.293Z,92.7
2017-12-22T09:29:21.296Z,92.89
2017-12-22T09:30:21.277Z,92.6
2017-12-22T09:31:21.249Z,92.51
2017-12-22T09:32:21.240Z,93.08
2017-12-22T09:33:21.235Z,92.6
2017-12-22T09:34:21.225Z,92.41
2017-12-22T09:35:21.210Z,92.79
2017-12-22T09:36:20.943Z,92.7
2017-12-22T09:37:21.241Z,92.32
2017-12-22T09:38:21.200Z,93.37
2017-12-22T09:39:21.203Z,92.51
2017-12-22T09:40:21.176Z,92.99
2017-12-22T09:41:21.160Z,92.99
2017-12-22T09:42:21.148Z,92.99
2017-12-22T09:43:21.135Z,93.13
2017-12-22T09:44:21.134Z,92.84
2017-12-22T09:45:21.123Z,92.65
2017-12-22T09:46:21.151Z,92.55
2017-12-22T09:47:21.098Z,92.65
2017-12-22T09:48:21.097Z,92.94
2017-12-22T09:49:21.078Z,92.18
2017-12-22T09:50:21.066Z,92.36
2017-12-22T09:51:21.062Z,92.08
2017-12-22T09:52:21.053Z,91.89
2017-12-22T09:53:20.780Z,92.27
2017-12-22T09:54:21.088Z,91.79
2017-12-22T09:55:21.067Z,91.7
2017-12-22T09:56:20.762Z,91.99
2017-12-22T09:57:21.005Z,92.46
2017-12-22T09:58:20.995Z,91.99
2017-12-22T09:59:20.977Z,92.08
2017-12-22T10:00:20.977Z,91.79
2017-12-22T10:01:20.982Z,92.18
2017-12-22T10:02:20.966Z,92.55
2017-12-22T10:03:20.952Z,92.08
2017-12-22T10:04:20.964Z,91.89
2017-12-22T10:05:20.933Z,91.79
2017-12-22T10:06:20.721Z,92.08
2017-12-22T10:07:20.670Z,91.99
2017-12-22T10:08:20.904Z,91.89
2017-12-22T10:09:20.883Z,91.51
2017-12-22T10:10:20.890Z,91.6
2017-12-22T10:11:20.873Z,91.99
2017-12-22T10:12:20.901Z,91.41
2017-12-22T10:13:20.854Z,91.99
2017-12-22T10:14:20.840Z,91.41
2017-12-22T10:15:20.824Z,91.99
2017-12-22T10:16:20.836Z,91.7
2017-12-22T10:17:21.108Z,91.31
2017-12-22T10:18:20.843Z,91.6
2017-12-22T10:19:20.845Z,92.08
2017-12-22T10:20:20.817Z,91.89
2017-12-22T10:21:20.821Z,91.41
2017-12-22T10:22:20.535Z,92.08
2017-12-22T10:23:20.822Z,91.6
2017-12-22T10:24:20.758Z,91.89
2017-12-22T10:25:20.790Z,91.79
2017-12-22T10:26:20.796Z,91.79
2017-12-22T10:27:20.484Z,92.08
2017-12-22T10:28:20.722Z,91.89
2017-12-22T10:29:20.705Z,91.89
2017-12-22T10:30:20.709Z,91.6
2017-12-22T10:31:20.678Z,91.46
2017-12-22T10:32:20.679Z,91.74
2017-12-22T10:33:20.672Z,91.74
2017-12-22T10:34:20.657Z,91.84
2017-12-22T10:35:20.646Z,91.65
2017-12-22T10:36:20.839Z,91.36
2017-12-22T10:37:20.647Z,91.74
2017-12-22T10:38:20.669Z,91.08
2017-12-22T10:39:20.624Z,91.17
2017-12-22T10:40:20.646Z,90.84
2017-12-22T10:41:20.613Z,90.93
2017-12-22T10:42:20.584Z,90.79
2017-12-22T10:43:20.339Z,90.74
2017-12-22T10:44:20.615Z,90.64
2017-12-22T10:45:20.626Z,90.89
2017-12-22T10:46:20.551Z,90.89
2017-12-22T10:47:20.562Z,91.17
2017-12-22T10:48:20.530Z,91.36
2017-12-22T10:49:20.529Z,91.84
2017-12-22T10:50:20.529Z,91.65
2017-12-22T10:51:20.513Z,91.17
2017-12-22T10:52:20.496Z,91.36
2017-12-22T10:53:20.493Z,91.65
2017-12-22T10:54:20.497Z,91.46
2017-12-22T10:55:20.463Z,91.94
2017-12-22T10:56:20.457Z,91.7
2017-12-22T10:57:20.452Z,91.94
2017-12-22T10:58:20.449Z,91.7
2017-12-22T10:59:20.432Z,92.18
2017-12-22T11:00:20.432Z,92.03
2017-12-22T11:01:20.411Z,92.18
2017-12-22T11:02:20.411Z,92.08
2017-12-22T11:03:20.404Z,92.55
2017-12-22T11:04:20.152Z,92.27
2017-12-22T11:05:20.375Z,91.99
2017-12-22T11:06:20.372Z,92.84
2017-12-22T11:07:20.358Z,92.84
2017-12-22T11:08:20.349Z,92.84
2017-12-22T11:09:20.336Z,92.36
2017-12-22T11:10:20.367Z,92.74
2017-12-22T11:11:20.318Z,93.41
2017-12-22T11:12:20.306Z,93.22
2017-12-22T11:13:20.298Z,93.55
2017-12-22T11:14:20.290Z,94.42
2017-12-22T11:15:20.283Z,94.7
2017-12-22T11:16:20.272Z,95.08
2017-12-22T11:17:20.300Z,95.08
2017-12-22T11:18:20.250Z,95.08
2017-12-22T11:19:20.242Z,95.08
2017-12-22T11:20:19.977Z,94.79
2017-12-22T11:21:20.222Z,94.89
2017-12-22T11:22:20.239Z,94.51
2017-12-22T11:23:20.208Z,94.89
2017-12-22T11:24:20.188Z,94.89
2017-12-22T11:25:20.187Z,94.98
2017-12-22T11:26:20.187Z,94.7
2017-12-22T11:27:20.211Z,94.98
2017-12-22T11:28:20.175Z,94.51
2017-12-22T11:29:20.158Z,94.13
2017-12-22T11:30:20.137Z,94.03
2017-12-22T11:31:20.164Z,94.03
2017-12-22T11:32:20.116Z,93.65
2017-12-22T11:33:20.318Z,93.94
2017-12-22T11:34:20.093Z,93.51
2017-12-22T11:35:20.089Z,93.7
2017-12-22T11:36:20.086Z,93.65
2017-12-22T11:37:20.084Z,93.84
2017-12-22T11:38:20.056Z,94.03
2017-12-22T11:39:19.819Z,94.03
2017-12-22T11:40:20.034Z,94.22
2017-12-22T11:41:20.045Z,94.03
2017-12-22T11:42:20.024Z,93.84
2017-12-22T11:43:20.011Z,94.03
2017-12-22T11:44:19.996Z,93.98
2017-12-22T11:45:19.986Z,93.84
2017-12-22T11:46:20.010Z,93.55
2017-12-22T11:47:19.978Z,93.55
2017-12-22T11:48:19.973Z,93.6
2017-12-22T11:49:19.968Z,93.6
2017-12-22T11:50:19.943Z,93.98
2017-12-22T11:51:19.937Z,93.89
2017-12-22T11:52:19.930Z,93.89
2017-12-22T11:53:19.918Z,94.17
2017-12-22T11:54:19.910Z,93.89
2017-12-22T11:55:19.902Z,93.79
2017-12-22T11:56:19.880Z,93.7
2017-12-22T11:57:19.894Z,93.89
2017-12-22T11:58:19.870Z,93.6
2017-12-22T11:59:19.855Z,93.79
2017-12-22T12:00:19.886Z,93.79
2017-12-22T12:01:19.847Z,94.08
2017-12-22T12:02:19.850Z,93.7
2017-12-22T12:03:19.811Z,93.98
2017-12-22T12:04:19.812Z,93.79
2017-12-22T12:05:19.791Z,93.89
2017-12-22T12:06:19.790Z,93.94
2017-12-22T12:07:19.784Z,93.79
2017-12-22T12:08:19.765Z,93.94
2017-12-22T12:09:19.770Z,93.98
2017-12-22T12:10:19.744Z,93.89
2017-12-22T12:11:19.734Z,93.79
2017-12-22T12:12:19.724Z,93.89
2017-12-22T12:13:19.715Z,93.6
2017-12-22T12:14:19.707Z,93.89
2017-12-22T12:15:19.697Z,93.6
2017-12-22T12:16:19.702Z,93.7
2017-12-22T12:17:19.684Z,93.98
2017-12-22T12:18:19.667Z,93.51
2017-12-22T12:19:19.714Z,93.41
2017-12-22T12:20:19.402Z,93.41
2017-12-22T12:21:19.643Z,93.79
2017-12-22T12:22:19.672Z,93.41
2017-12-22T12:23:19.619Z,93.51
2017-12-22T12:24:19.618Z,93.79
2017-12-22T12:25:19.607Z,93.89
2017-12-22T12:26:19.593Z,93.41
2017-12-22T12:27:19.358Z,93.32
2017-12-22T12:28:19.615Z,93.51
2017-12-22T12:29:19.561Z,93.41
2017-12-22T12:30:19.666Z,93.03
2017-12-22T12:31:19.543Z,93.22
2017-12-22T12:32:19.553Z,93.03
2017-12-22T12:33:19.528Z,93.03
2017-12-22T12:34:19.531Z,93.32
2017-12-22T12:35:19.504Z,93.22
2017-12-22T12:36:19.241Z,93.41
2017-12-22T12:37:19.493Z,93.22
2017-12-22T12:38:19.475Z,93.32
2017-12-22T12:39:19.472Z,92.94
2017-12-22T12:40:19.460Z,93.03
2017-12-22T12:41:19.456Z,93.03
2017-12-22T12:42:19.438Z,93.22
2017-12-22T12:43:19.456Z,93.13
2017-12-22T12:44:19.430Z,93.41
2017-12-22T12:45:19.425Z,93.22
2017-12-22T12:46:19.485Z,93.41
2017-12-22T12:47:19.157Z,93.03
2017-12-22T12:48:19.399Z,93.22
2017-12-22T12:49:19.415Z,93.41
2017-12-22T12:50:19.366Z,93.32
2017-12-22T12:51:19.362Z,93.41
2017-12-22T12:52:19.360Z,93.51
2017-12-22T12:53:19.336Z,93.41
2017-12-22T12:54:19.327Z,93.32
2017-12-22T12:55:19.316Z,93.41
2017-12-22T12:56:19.320Z,93.41